Terminal Aerodrome Forecast
Issued by NWS Missoula, MT

Home | Current Version | Previous Version | Text Only | Print | Product List | Glossary On
Versions: 1 2 3 4 5 6 7 8 9 10 11 12 13 14
179
FTUS45 KMSO 191120
TAFGPI
TAF
KGPI 191120Z 1912/2012 VRB03KT P6SM BCFG BKN045 OVC060
     FM191900 18010G18KT 6SM -RA BR SCT030 OVC050
     FM200500 19010KT 6SM -RA BR OVC030
     FM200900 VRB04KT P6SM VCSH FEW009 OVC035=

USA.gov is the U.S. government's official web portal to all federal, state and local government web resources and services.